Portada
METAR-TAF:

METAR-TAF

Aeroports :

Volgograd, Rússia

latitud: 48-47N, longitud: 044-22E, altitud: 145 m

Observació

L'informe es va fer fa 35 minuts, a les 00:00 UTC
Vent 8 kt del Est/Sud-Est
Temperatura 19°C
Humitat 56%
Pressió 1018 hPa
Visibilitat 10 km o més
sense núvols per sota de 1500 mi sense presència de cumulonimbus.

METAR: URWW 160000Z 11004MPS CAVOK 19/10 Q1018 R06/010070 NOSIG

Hora: 03:35 (00:35 UTC)

Pronòstic

L'informe es va fer fa 1 hora i 38 minuts, a les 22:57 UTC
Pronòstic vàlid del 16 a les 00 UTC al 16 a les 09 UTC
Vent 6 kt del Est amb ràfegues de 16 kt
Visibilitat 10 km o més
sense núvols per sota de 1500 mi sense presència de cumulonimbus.
Temporalment
l' 16 a les 00 UTC al 16 a les 09 UTC
Vent 6 kt del Est/Sud-Est amb ràfegues de 16 kt

TAF: URWW 152257Z 1600/1609 08003G08MPS CAVOK TEMPO 1600/1609 11003G08MPS

Observacions i pronòstics meteorològics de més de 4000 aeroports (METAR i TAF).

Les estacions disponibles són els punts grocs i vermells al mapa.

Posi el ratolí al punt desitjat per veure el nom de l'estació.

Feu clic per veure les observacions i els pronòstics meteorològics.

Per canviar el mapa: feu clic els botons verds amb una creu de color negre per apropar; al botó verd amb un guió per allunyar la imatge; o en les fletxes verdes per a mapes adjacents.


METAR-TAF: